createdAt,value
2023-03-31T00:01:04.765Z,57.34
2023-03-31T00:03:34.263Z,57.41
2023-03-31T00:06:04.101Z,57.00
2023-03-31T00:08:36.743Z,57.13
2023-03-31T00:11:07.482Z,56.88
2023-03-31T00:13:37.119Z,57.83
2023-03-31T00:16:08.087Z,58.78
2023-03-31T00:18:37.275Z,59.36
2023-03-31T00:21:14.821Z,59.54
2023-03-31T00:23:44.680Z,57.99
2023-03-31T00:26:12.966Z,57.38
2023-03-31T00:28:41.270Z,57.28
2023-03-31T00:31:09.527Z,59.05
2023-03-31T00:33:37.878Z,59.12
2023-03-31T00:36:06.933Z,58.15
2023-03-31T00:38:36.187Z,58.51
2023-03-31T00:41:06.713Z,59.37
2023-03-31T00:43:37.067Z,60.04
2023-03-31T00:46:15.707Z,59.82
2023-03-31T00:48:49.254Z,59.14
2023-03-31T00:51:17.611Z,58.49
2023-03-31T00:53:52.044Z,58.46
2023-03-31T00:56:22.341Z,58.40
2023-03-31T00:58:50.883Z,59.28
2023-03-31T01:01:24.882Z,60.11
2023-03-31T01:03:53.956Z,59.67
2023-03-31T01:06:23.978Z,59.53
2023-03-31T01:08:53.413Z,58.80
2023-03-31T01:11:27.609Z,58.14
2023-03-31T01:13:58.189Z,57.89
2023-03-31T01:16:26.494Z,58.01
2023-03-31T01:18:57.717Z,58.61
2023-03-31T01:22:02.802Z,59.15
2023-03-31T01:25:07.031Z,58.70
2023-03-31T01:27:59.492Z,58.51
2023-03-31T01:30:56.677Z,58.59
2023-03-31T01:33:52.540Z,59.50
2023-03-31T01:37:06.501Z,60.44
2023-03-31T01:40:08.533Z,61.65
2023-03-31T01:42:40.639Z,61.58
2023-03-31T01:45:21.330Z,60.44
2023-03-31T01:47:58.236Z,60.98
2023-03-31T01:50:32.169Z,61.15
2023-03-31T01:53:06.928Z,62.65
2023-03-31T01:55:38.464Z,61.36
2023-03-31T01:58:12.879Z,60.93
2023-03-31T02:00:46.941Z,61.53
2023-03-31T02:03:19.510Z,60.53
2023-03-31T02:05:53.835Z,60.26
2023-03-31T02:08:26.252Z,60.27
2023-03-31T02:10:57.285Z,60.17
2023-03-31T02:13:29.145Z,59.50
2023-03-31T02:16:02.686Z,59.82
2023-03-31T02:18:33.481Z,59.87
2023-03-31T02:21:02.437Z,60.77
2023-03-31T02:23:32.936Z,60.56
2023-03-31T02:26:05.814Z,60.12
2023-03-31T02:28:34.916Z,60.12
2023-03-31T02:31:15.014Z,59.31
2023-03-31T02:33:43.498Z,59.25
2023-03-31T02:36:12.205Z,60.30
2023-03-31T02:38:46.497Z,59.55
2023-03-31T02:41:16.293Z,59.79
2023-03-31T02:43:44.579Z,59.71
2023-03-31T02:46:12.947Z,59.26
2023-03-31T02:48:44.654Z,59.26
2023-03-31T02:51:46.106Z,59.79
2023-03-31T02:54:56.325Z,59.41
2023-03-31T02:57:58.231Z,59.81
2023-03-31T03:00:38.389Z,59.62
2023-03-31T03:03:21.066Z,59.32
2023-03-31T03:06:00.778Z,59.54
2023-03-31T03:08:42.510Z,60.93
2023-03-31T03:11:21.984Z,61.30
2023-03-31T03:13:54.058Z,61.96
2023-03-31T03:16:27.517Z,61.79
2023-03-31T03:18:59.670Z,61.16
2023-03-31T03:21:28.171Z,61.07
2023-03-31T03:23:56.654Z,60.02
2023-03-31T03:26:28.235Z,59.16
2023-03-31T03:28:58.556Z,59.42
2023-03-31T03:31:26.911Z,60.94
2023-03-31T03:33:56.042Z,59.32
2023-03-31T03:36:24.435Z,59.51
2023-03-31T03:38:52.746Z,59.83
2023-03-31T03:41:20.995Z,59.99
2023-03-31T03:43:49.277Z,59.58
2023-03-31T03:46:19.042Z,60.77
2023-03-31T03:48:47.374Z,62.11
2023-03-31T03:51:15.822Z,61.48
2023-03-31T03:53:44.222Z,60.80
2023-03-31T03:56:12.579Z,60.51
2023-03-31T03:58:41.016Z,61.30
2023-03-31T04:01:09.437Z,61.55
2023-03-31T04:03:39.321Z,61.91
2023-03-31T04:06:08.417Z,61.68
2023-03-31T04:08:37.107Z,61.78
2023-03-31T04:11:12.874Z,62.99
2023-03-31T04:13:41.290Z,64.26
2023-03-31T04:16:09.926Z,65.68
2023-03-31T04:18:43.897Z,66.82
2023-03-31T04:21:15.607Z,64.59
2023-03-31T04:23:46.972Z,65.08
2023-03-31T04:26:16.723Z,66.18
2023-03-31T04:28:47.027Z,64.56
2023-03-31T04:31:25.678Z,63.85
2023-03-31T04:33:55.889Z,62.98
2023-03-31T04:36:24.260Z,62.45
2023-03-31T04:38:55.070Z,64.77
2023-03-31T04:41:23.937Z,68.85
2023-03-31T04:43:52.770Z,70.59
2023-03-31T04:46:21.518Z,69.80
2023-03-31T04:48:49.886Z,70.25
2023-03-31T04:51:20.468Z,69.24
2023-03-31T04:53:48.879Z,68.97
2023-03-31T04:56:17.091Z,69.23
2023-03-31T04:58:45.651Z,67.33
2023-03-31T05:01:18.497Z,67.02
2023-03-31T05:03:48.222Z,66.44
2023-03-31T05:06:16.982Z,67.03
2023-03-31T05:08:46.769Z,67.62
2023-03-31T05:11:15.289Z,67.36
2023-03-31T05:13:43.613Z,66.29
2023-03-31T05:16:14.649Z,65.68
2023-03-31T05:18:43.428Z,65.93
2023-03-31T05:21:14.438Z,66.80
2023-03-31T05:23:43.801Z,65.37
2023-03-31T05:26:14.322Z,64.46
2023-03-31T05:28:43.420Z,64.83
2023-03-31T05:31:13.229Z,63.26
2023-03-31T05:33:42.387Z,63.25
2023-03-31T05:36:12.685Z,62.58
2023-03-31T05:38:41.457Z,63.09
2023-03-31T05:41:11.264Z,62.95
2023-03-31T05:43:41.325Z,62.09
2023-03-31T05:46:10.055Z,61.94
2023-03-31T05:48:38.760Z,62.17
2023-03-31T05:51:07.469Z,61.88
2023-03-31T05:53:36.274Z,61.91
2023-03-31T05:56:07.251Z,61.85
2023-03-31T05:58:36.717Z,61.05
2023-03-31T06:01:09.645Z,60.87
2023-03-31T06:03:41.303Z,58.56
2023-03-31T06:06:10.717Z,57.64
2023-03-31T06:08:39.415Z,56.91
2023-03-31T06:11:09.163Z,55.76
2023-03-31T06:13:37.923Z,54.94
2023-03-31T06:16:08.463Z,54.99
2023-03-31T06:18:37.499Z,54.34
2023-03-31T06:21:06.669Z,53.72
2023-03-31T06:23:35.779Z,52.40
2023-03-31T06:26:07.269Z,51.49
2023-03-31T06:28:36.209Z,50.74
2023-03-31T06:31:06.447Z,49.90
2023-03-31T06:33:37.150Z,49.03
2023-03-31T06:36:06.984Z,47.94
2023-03-31T06:38:36.434Z,47.91
2023-03-31T06:41:04.904Z,47.99
2023-03-31T06:43:33.976Z,47.91
2023-03-31T06:46:02.735Z,46.78
2023-03-31T06:48:31.109Z,44.12
2023-03-31T06:51:03.547Z,43.61
2023-03-31T06:53:32.254Z,43.88
2023-03-31T06:56:01.143Z,44.53
2023-03-31T06:58:31.354Z,44.31
2023-03-31T07:01:00.658Z,43.97
2023-03-31T07:03:29.602Z,43.57
2023-03-31T07:05:58.058Z,43.54
2023-03-31T07:08:27.789Z,43.17
2023-03-31T07:10:58.085Z,43.15
2023-03-31T07:13:27.322Z,42.93
2023-03-31T07:15:55.978Z,42.91
2023-03-31T07:18:26.296Z,45.12
2023-03-31T07:20:54.848Z,44.34
2023-03-31T07:23:23.108Z,44.08
2023-03-31T07:25:52.911Z,42.60
2023-03-31T07:28:21.193Z,43.56
2023-03-31T07:30:49.442Z,42.83
2023-03-31T07:33:17.786Z,42.55
2023-03-31T07:38:15.509Z,40.45
2023-03-31T07:40:49.070Z,38.96
2023-03-31T07:43:25.495Z,39.24
2023-03-31T07:45:53.968Z,38.77
2023-03-31T07:48:22.533Z,38.63
2023-03-31T07:50:51.710Z,38.72
2023-03-31T07:53:20.068Z,38.21
2023-03-31T07:55:48.817Z,37.26
2023-03-31T07:58:17.165Z,37.64
2023-03-31T08:00:46.930Z,36.63
2023-03-31T08:03:15.321Z,36.69
2023-03-31T08:05:45.952Z,36.39
2023-03-31T08:08:14.412Z,35.60
2023-03-31T08:10:42.674Z,36.75
2023-03-31T08:13:10.995Z,37.06
2023-03-31T08:15:39.339Z,37.88
2023-03-31T08:18:09.917Z,37.54
2023-03-31T08:20:39.489Z,36.98
2023-03-31T08:23:11.597Z,36.04
2023-03-31T08:25:40.051Z,36.17
2023-03-31T08:28:10.971Z,34.99
2023-03-31T08:30:39.744Z,35.10
2023-03-31T08:33:12.242Z,35.96
2023-03-31T08:35:40.710Z,34.04
2023-03-31T08:38:09.257Z,33.88
2023-03-31T08:40:41.445Z,33.14
2023-03-31T08:43:14.327Z,33.03
2023-03-31T08:45:47.149Z,31.59
2023-03-31T08:48:26.122Z,30.04
2023-03-31T08:50:58.803Z,32.12
2023-03-31T08:53:30.406Z,32.05
2023-03-31T08:56:00.233Z,31.64
2023-03-31T08:58:39.568Z,31.87
2023-03-31T09:01:18.428Z,31.76
2023-03-31T09:04:06.210Z,30.99
2023-03-31T09:06:39.409Z,31.11
2023-03-31T09:09:12.818Z,32.19
2023-03-31T09:11:47.596Z,30.73
2023-03-31T09:14:22.876Z,30.20
2023-03-31T09:17:01.141Z,29.98
2023-03-31T09:19:37.896Z,31.45
2023-03-31T09:22:12.734Z,31.86
2023-03-31T09:24:49.039Z,33.14
2023-03-31T09:27:17.733Z,30.47
2023-03-31T09:29:51.466Z,30.68
2023-03-31T09:32:22.190Z,30.02
2023-03-31T09:34:57.420Z,29.84
2023-03-31T09:37:28.728Z,30.95
2023-03-31T09:39:57.644Z,32.78
2023-03-31T09:42:26.033Z,30.13
2023-03-31T09:44:55.252Z,29.00
2023-03-31T09:47:30.900Z,28.80
2023-03-31T09:50:00.800Z,28.49
2023-03-31T09:52:32.227Z,27.78
2023-03-31T09:55:02.698Z,28.64
2023-03-31T09:57:34.121Z,29.21
2023-03-31T10:00:16.844Z,27.67
2023-03-31T10:02:50.052Z,26.77
2023-03-31T10:05:29.581Z,26.13
2023-03-31T10:08:23.848Z,25.00
2023-03-31T10:10:55.530Z,27.37
2023-03-31T10:13:26.723Z,28.59
2023-03-31T10:15:57.451Z,28.67
2023-03-31T10:18:35.518Z,29.04
2023-03-31T10:21:07.512Z,29.94
2023-03-31T10:23:37.149Z,30.23
2023-03-31T10:26:06.928Z,28.61
2023-03-31T10:28:37.436Z,28.84
2023-03-31T10:31:06.783Z,28.02
2023-03-31T10:33:42.030Z,28.34
2023-03-31T10:36:18.961Z,29.42
2023-03-31T10:38:50.080Z,31.15
2023-03-31T10:41:21.236Z,32.40
2023-03-31T10:43:52.669Z,31.47
2023-03-31T10:46:22.886Z,29.88
2023-03-31T10:48:52.876Z,29.34
2023-03-31T10:51:27.825Z,27.39
2023-03-31T10:54:03.494Z,28.07
2023-03-31T10:56:39.840Z,28.47
2023-03-31T10:59:25.868Z,27.12
2023-03-31T11:02:08.023Z,26.45
2023-03-31T11:04:47.574Z,26.23
2023-03-31T11:07:37.316Z,25.90
2023-03-31T11:10:23.451Z,25.77
2023-03-31T11:12:59.043Z,25.61
2023-03-31T11:15:35.858Z,25.69
2023-03-31T11:18:17.822Z,25.37
2023-03-31T11:20:57.815Z,25.16
2023-03-31T11:23:41.959Z,25.47
2023-03-31T11:26:14.610Z,25.46
2023-03-31T11:29:01.920Z,25.20
2023-03-31T11:31:47.920Z,24.67
2023-03-31T11:34:34.262Z,24.34
2023-03-31T11:37:23.102Z,23.47
2023-03-31T11:40:23.686Z,23.81
2023-03-31T11:42:58.022Z,24.29
2023-03-31T11:45:31.463Z,23.82
2023-03-31T11:48:07.458Z,24.33
2023-03-31T11:50:43.460Z,24.66
2023-03-31T11:53:17.899Z,24.20
2023-03-31T11:55:50.280Z,23.71
2023-03-31T11:58:23.920Z,24.04
2023-03-31T12:00:58.766Z,26.36
2023-03-31T12:03:38.438Z,25.28
2023-03-31T12:06:17.593Z,24.99
2023-03-31T12:08:53.073Z,24.76
2023-03-31T12:11:29.031Z,26.26
2023-03-31T12:14:03.275Z,25.36
2023-03-31T12:16:39.633Z,25.24
2023-03-31T12:19:14.896Z,26.14
2023-03-31T12:21:49.426Z,26.13
2023-03-31T12:24:17.866Z,26.85
2023-03-31T12:26:59.200Z,28.02
2023-03-31T12:29:32.665Z,30.28
2023-03-31T12:32:05.085Z,29.96
2023-03-31T12:34:34.891Z,28.79
2023-03-31T12:37:40.200Z,30.17
2023-03-31T12:40:19.629Z,30.54
2023-03-31T12:43:17.792Z,30.07
2023-03-31T12:45:51.619Z,30.86
2023-03-31T12:48:45.674Z,30.58
2023-03-31T12:51:26.043Z,30.96
2023-03-31T12:54:09.926Z,30.17
2023-03-31T12:57:05.361Z,31.11
2023-03-31T12:59:37.070Z,30.77
2023-03-31T13:02:27.062Z,30.68
2023-03-31T13:04:55.498Z,31.09
2023-03-31T13:07:43.398Z,30.88
2023-03-31T13:10:59.778Z,30.70
2023-03-31T13:13:28.445Z,31.62
2023-03-31T13:16:00.812Z,30.65
2023-03-31T13:18:35.810Z,31.00
2023-03-31T13:21:08.022Z,30.18
2023-03-31T13:23:37.917Z,30.50
2023-03-31T13:26:07.062Z,29.91
2023-03-31T13:28:40.270Z,28.24
2023-03-31T13:31:11.616Z,29.53
2023-03-31T13:33:52.113Z,28.30
2023-03-31T13:36:52.947Z,27.92
2023-03-31T13:39:53.653Z,27.01
2023-03-31T13:42:47.825Z,26.72
2023-03-31T13:45:29.527Z,27.00
2023-03-31T13:48:15.272Z,27.86
2023-03-31T13:50:54.834Z,27.23
2023-03-31T13:53:39.601Z,27.04
2023-03-31T13:56:25.676Z,28.46
2023-03-31T13:59:26.027Z,28.10
2023-03-31T14:02:17.689Z,26.96
2023-03-31T14:05:06.665Z,26.80
2023-03-31T14:07:42.994Z,26.35
2023-03-31T14:10:24.462Z,26.82
2023-03-31T14:12:53.477Z,26.92
2023-03-31T14:15:22.515Z,25.86
2023-03-31T14:17:51.056Z,26.52
2023-03-31T14:20:36.454Z,27.85
2023-03-31T14:23:18.186Z,28.03
2023-03-31T14:25:54.663Z,29.62
2023-03-31T14:28:37.920Z,28.30
2023-03-31T14:31:20.648Z,28.47
2023-03-31T14:34:04.687Z,29.05
2023-03-31T14:36:41.911Z,29.39
2023-03-31T14:39:13.392Z,29.49
2023-03-31T14:41:44.860Z,29.36
2023-03-31T14:44:17.115Z,28.69
2023-03-31T14:46:45.612Z,28.33
2023-03-31T14:49:22.082Z,29.04
2023-03-31T14:51:54.322Z,28.49
2023-03-31T14:54:23.152Z,29.00
2023-03-31T14:56:55.180Z,28.44
2023-03-31T14:59:27.767Z,27.54
2023-03-31T15:01:59.727Z,27.38
2023-03-31T15:04:41.497Z,27.48
2023-03-31T15:07:13.084Z,28.49
2023-03-31T15:09:43.743Z,29.64
2023-03-31T15:12:16.229Z,29.11
2023-03-31T15:14:48.048Z,29.21
2023-03-31T15:17:21.560Z,29.02
2023-03-31T15:19:55.093Z,30.31
2023-03-31T15:22:26.399Z,28.75
2023-03-31T15:24:55.094Z,28.49
2023-03-31T15:30:25.349Z,28.83
2023-03-31T15:33:01.440Z,28.86
2023-03-31T15:35:37.826Z,29.05
2023-03-31T15:38:08.150Z,29.12
2023-03-31T15:40:41.078Z,28.99
2023-03-31T15:43:25.601Z,29.66
2023-03-31T15:45:55.654Z,30.83
2023-03-31T15:48:28.627Z,30.26
2023-03-31T15:51:01.529Z,30.27
2023-03-31T15:53:36.987Z,32.10
2023-03-31T15:56:07.617Z,30.51
2023-03-31T15:58:57.376Z,30.64
2023-03-31T16:01:33.061Z,31.30
2023-03-31T16:04:02.967Z,32.24
2023-03-31T16:06:43.495Z,32.07
2023-03-31T16:09:17.980Z,32.00
2023-03-31T16:11:50.822Z,31.54
2023-03-31T16:14:22.926Z,32.02
2023-03-31T16:16:54.621Z,32.23
2023-03-31T16:19:28.649Z,32.38
2023-03-31T16:22:02.215Z,32.58
2023-03-31T16:24:34.895Z,33.03
2023-03-31T16:27:06.632Z,32.09
2023-03-31T16:29:37.190Z,32.26
2023-03-31T16:32:11.675Z,32.24
2023-03-31T16:34:54.119Z,32.86
2023-03-31T16:37:22.394Z,32.67
2023-03-31T16:39:52.329Z,32.89
2023-03-31T16:42:21.225Z,33.59
2023-03-31T16:44:59.842Z,33.96
2023-03-31T16:47:36.197Z,34.02
2023-03-31T16:50:07.801Z,33.66
2023-03-31T16:52:37.256Z,33.53
2023-03-31T16:55:09.394Z,33.66
2023-03-31T16:57:37.753Z,34.21
2023-03-31T17:00:07.063Z,34.89
2023-03-31T17:02:35.456Z,34.06
2023-03-31T17:05:12.635Z,34.15
2023-03-31T17:07:41.745Z,35.94
2023-03-31T17:10:13.016Z,34.46
2023-03-31T17:12:41.479Z,34.35
2023-03-31T17:15:11.181Z,34.32
2023-03-31T17:17:39.665Z,35.90
2023-03-31T17:20:09.350Z,35.14
2023-03-31T17:22:40.814Z,34.40
2023-03-31T17:25:11.610Z,36.63
2023-03-31T17:27:40.079Z,34.59
2023-03-31T17:30:10.007Z,34.30
2023-03-31T17:32:38.532Z,35.17
2023-03-31T17:35:07.963Z,34.27
2023-03-31T17:37:39.568Z,35.20
2023-03-31T17:40:09.929Z,34.50
2023-03-31T17:42:39.691Z,34.65
2023-03-31T17:45:09.699Z,34.68
2023-03-31T17:47:38.021Z,35.80
2023-03-31T17:50:08.828Z,35.30
2023-03-31T17:52:37.434Z,35.01
2023-03-31T17:55:06.490Z,35.11
2023-03-31T17:57:36.842Z,35.04
2023-03-31T18:00:09.060Z,35.31
2023-03-31T18:02:37.613Z,35.47
2023-03-31T18:05:08.530Z,37.33
2023-03-31T18:07:37.908Z,37.45
2023-03-31T18:10:07.335Z,38.56
2023-03-31T18:12:37.170Z,38.48
2023-03-31T18:15:10.564Z,39.15
2023-03-31T18:17:38.966Z,39.79
2023-03-31T18:20:08.287Z,38.65
2023-03-31T18:22:37.178Z,37.88
2023-03-31T18:25:06.027Z,38.63
2023-03-31T18:27:34.265Z,42.53
2023-03-31T18:30:02.523Z,39.86
2023-03-31T18:32:33.033Z,39.83
2023-03-31T18:35:01.339Z,39.76
2023-03-31T18:37:29.848Z,39.49
2023-03-31T18:39:58.155Z,38.67
2023-03-31T18:42:26.584Z,38.90
2023-03-31T18:44:54.871Z,40.95
2023-03-31T18:47:23.365Z,40.85
2023-03-31T18:49:55.781Z,41.03
2023-03-31T18:52:24.159Z,41.18
2023-03-31T18:54:53.142Z,40.83
2023-03-31T18:57:21.817Z,40.94
2023-03-31T18:59:50.267Z,41.54
2023-03-31T19:02:18.711Z,41.23
2023-03-31T19:04:48.180Z,40.98
2023-03-31T19:07:18.132Z,41.57
2023-03-31T19:09:46.688Z,41.36
2023-03-31T19:12:15.399Z,40.83
2023-03-31T19:14:44.136Z,40.25
2023-03-31T19:17:13.104Z,40.92
2023-03-31T19:19:41.648Z,41.37
2023-03-31T19:22:10.075Z,41.01
2023-03-31T19:24:40.158Z,40.46
2023-03-31T19:27:08.493Z,40.83
2023-03-31T19:29:36.832Z,41.12
2023-03-31T19:32:06.298Z,41.53
2023-03-31T19:34:35.007Z,41.40
2023-03-31T19:37:04.342Z,41.98
2023-03-31T19:39:32.812Z,42.64
2023-03-31T19:42:03.472Z,42.44
2023-03-31T19:44:32.030Z,43.38
2023-03-31T19:47:00.485Z,44.57
2023-03-31T19:49:28.888Z,44.50
2023-03-31T19:51:57.300Z,44.75
2023-03-31T19:54:25.983Z,45.32
2023-03-31T19:56:54.224Z,45.11
2023-03-31T19:59:24.316Z,45.46
2023-03-31T20:01:52.790Z,44.90
2023-03-31T20:07:07.694Z,44.33
2023-03-31T20:09:36.457Z,45.50
2023-03-31T20:12:05.146Z,46.49
2023-03-31T20:14:35.317Z,45.93
2023-03-31T20:17:04.958Z,47.38
2023-03-31T20:19:33.233Z,47.64
2023-03-31T20:22:02.223Z,48.37
2023-03-31T20:24:30.714Z,47.79
2023-03-31T20:26:59.359Z,47.02
2023-03-31T20:29:27.627Z,48.23
2023-03-31T20:31:57.716Z,48.49
2023-03-31T20:34:27.740Z,49.31
2023-03-31T20:36:56.537Z,47.72
2023-03-31T20:39:24.894Z,47.10
2023-03-31T20:41:54.975Z,47.42
2023-03-31T20:44:23.327Z,47.03
2023-03-31T20:46:52.542Z,47.83
2023-03-31T20:49:22.348Z,47.61
2023-03-31T20:51:51.080Z,47.99
2023-03-31T20:54:19.387Z,48.80
2023-03-31T20:56:47.789Z,49.50
2023-03-31T20:59:16.796Z,50.01
2023-03-31T21:01:47.378Z,50.43
2023-03-31T21:04:17.111Z,50.20
2023-03-31T21:06:48.699Z,51.63
2023-03-31T21:09:17.874Z,50.17
2023-03-31T21:11:46.225Z,49.32
2023-03-31T21:14:16.108Z,49.34
2023-03-31T21:16:45.061Z,49.41
2023-03-31T21:19:13.845Z,51.12
2023-03-31T21:21:43.302Z,52.64
2023-03-31T21:24:14.689Z,51.40
2023-03-31T21:26:43.020Z,51.72
2023-03-31T21:29:11.317Z,53.49
2023-03-31T21:31:41.671Z,53.91
2023-03-31T21:34:11.095Z,54.19
2023-03-31T21:36:39.419Z,53.22
2023-03-31T21:39:08.084Z,52.35
2023-03-31T21:41:39.980Z,52.03
2023-03-31T21:44:09.085Z,51.97
2023-03-31T21:46:37.638Z,52.26
2023-03-31T21:49:06.462Z,52.55
2023-03-31T21:51:34.776Z,52.58
2023-03-31T21:54:03.097Z,53.17
2023-03-31T21:56:32.137Z,53.07
2023-03-31T21:59:02.511Z,55.60
2023-03-31T22:01:30.851Z,54.14
2023-03-31T22:04:00.476Z,54.13
2023-03-31T22:06:28.986Z,55.55
2023-03-31T22:08:57.228Z,55.10
2023-03-31T22:11:25.502Z,55.45
2023-03-31T22:13:53.926Z,56.31
2023-03-31T22:16:24.125Z,54.90
2023-03-31T22:18:53.014Z,54.39
2023-03-31T22:21:23.622Z,55.19
2023-03-31T22:23:53.315Z,56.41
2023-03-31T22:26:21.868Z,57.12
2023-03-31T22:28:50.648Z,56.38
2023-03-31T22:31:19.095Z,56.70
2023-03-31T22:33:49.097Z,55.75
2023-03-31T22:36:17.691Z,56.00
2023-03-31T22:38:46.045Z,57.54
2023-03-31T22:41:14.322Z,57.22
2023-03-31T22:43:45.345Z,57.72
2023-03-31T22:46:15.063Z,57.09
2023-03-31T22:48:44.221Z,59.18
2023-03-31T22:51:14.622Z,57.18
2023-03-31T22:53:43.001Z,56.58
2023-03-31T22:56:13.208Z,56.40
2023-03-31T22:58:41.407Z,56.37
2023-03-31T23:01:14.832Z,56.44
2023-03-31T23:03:43.262Z,56.62
2023-03-31T23:06:13.738Z,57.02
2023-03-31T23:08:42.424Z,56.46
2023-03-31T23:11:12.991Z,56.85
2023-03-31T23:13:41.296Z,57.99
2023-03-31T23:16:11.702Z,57.74
2023-03-31T23:18:44.510Z,57.66
2023-03-31T23:21:14.745Z,58.21
2023-03-31T23:23:43.299Z,58.62
2023-03-31T23:26:12.506Z,58.69
2023-03-31T23:28:40.894Z,57.80
2023-03-31T23:31:09.370Z,57.50
2023-03-31T23:33:37.546Z,57.96
2023-03-31T23:36:08.435Z,57.72
2023-03-31T23:38:38.103Z,58.30
2023-03-31T23:41:06.887Z,58.40
2023-03-31T23:43:35.255Z,59.62
2023-03-31T23:46:04.919Z,59.18
2023-03-31T23:48:33.470Z,59.62
2023-03-31T23:51:01.922Z,60.30
2023-03-31T23:53:30.704Z,61.40
2023-03-31T23:56:02.862Z,61.63
2023-03-31T23:58:32.848Z,60.39
